sensor_id;sensor_type;location;lat;lon;timestamp;pressure;altitude;pressure_sealevel;temperature;humidity
56040;BME280;43937;41.366;2.072;2023-07-13T00:02:16;100813.50;;;29.06;56.85
56040;BME280;43937;41.366;2.072;2023-07-13T00:04:42;100837.72;;;29.36;56.65
56040;BME280;43937;41.366;2.072;2023-07-13T00:07:08;100837.50;;;29.28;56.15
56040;BME280;43937;41.366;2.072;2023-07-13T00:09:33;100829.91;;;29.33;56.67
56040;BME280;43937;41.366;2.072;2023-07-13T00:11:59;100837.84;;;29.16;56.47
56040;BME280;43937;41.366;2.072;2023-07-13T00:14:27;100843.16;;;29.17;56.64
56040;BME280;43937;41.366;2.072;2023-07-13T00:16:52;100839.22;;;29.18;56.48
56040;BME280;43937;41.366;2.072;2023-07-13T00:19:18;100841.44;;;29.27;56.43
56040;BME280;43937;41.366;2.072;2023-07-13T00:21:43;100841.94;;;29.34;56.24
56040;BME280;43937;41.366;2.072;2023-07-13T00:24:18;100823.50;;;29.22;56.34
56040;BME280;43937;41.366;2.072;2023-07-13T00:26:48;100825.28;;;28.98;57.68
56040;BME280;43937;41.366;2.072;2023-07-13T00:29:14;100830.59;;;29.05;57.43
56040;BME280;43937;41.366;2.072;2023-07-13T00:31:39;100796.78;;;28.86;57.05
56040;BME280;43937;41.366;2.072;2023-07-13T00:34:05;100823.63;;;28.92;58.01
56040;BME280;43937;41.366;2.072;2023-07-13T00:36:30;100812.44;;;28.92;57.71
56040;BME280;43937;41.366;2.072;2023-07-13T00:38:56;100840.31;;;29.22;56.38
56040;BME280;43937;41.366;2.072;2023-07-13T00:41:22;100834.84;;;28.97;57.47
56040;BME280;43937;41.366;2.072;2023-07-13T00:43:47;100828.72;;;28.80;58.05
56040;BME280;43937;41.366;2.072;2023-07-13T00:46:23;100835.41;;;28.89;57.55
56040;BME280;43937;41.366;2.072;2023-07-13T00:48:51;100841.84;;;28.89;58.75
56040;BME280;43937;41.366;2.072;2023-07-13T00:51:22;100847.25;;;28.75;58.92
56040;BME280;43937;41.366;2.072;2023-07-13T00:53:51;100842.63;;;29.10;57.32
56040;BME280;43937;41.366;2.072;2023-07-13T00:56:18;100816.44;;;28.81;58.06
56040;BME280;43937;41.366;2.072;2023-07-13T00:58:44;100828.72;;;28.90;58.16
56040;BME280;43937;41.366;2.072;2023-07-13T01:01:10;100818.16;;;28.66;59.51
56040;BME280;43937;41.366;2.072;2023-07-13T01:03:38;100829.88;;;28.79;59.64
56040;BME280;43937;41.366;2.072;2023-07-13T01:06:06;100834.28;;;28.95;58.69
56040;BME280;43937;41.366;2.072;2023-07-13T01:08:32;100831.53;;;28.85;59.69
56040;BME280;43937;41.366;2.072;2023-07-13T01:10:58;100835.69;;;28.92;59.06
56040;BME280;43937;41.366;2.072;2023-07-13T01:13:24;100839.38;;;28.83;59.31
56040;BME280;43937;41.366;2.072;2023-07-13T01:15:51;100828.72;;;28.90;59.02
56040;BME280;43937;41.366;2.072;2023-07-13T01:18:26;100830.66;;;28.89;59.74
56040;BME280;43937;41.366;2.072;2023-07-13T01:23:22;100818.41;;;28.70;60.34
56040;BME280;43937;41.366;2.072;2023-07-13T01:25:49;100821.66;;;28.92;59.38
56040;BME280;43937;41.366;2.072;2023-07-13T01:28:15;100835.09;;;28.95;59.07
56040;BME280;43937;41.366;2.072;2023-07-13T01:30:42;100825.81;;;29.10;58.95
56040;BME280;43937;41.366;2.072;2023-07-13T01:33:12;100839.56;;;29.12;58.78
56040;BME280;43937;41.366;2.072;2023-07-13T01:35:37;100842.63;;;29.15;59.52
56040;BME280;43937;41.366;2.072;2023-07-13T01:38:07;100842.34;;;29.17;59.42
56040;BME280;43937;41.366;2.072;2023-07-13T01:40:34;100839.00;;;29.10;59.73
56040;BME280;43937;41.366;2.072;2023-07-13T01:43:00;100840.38;;;29.17;59.59
56040;BME280;43937;41.366;2.072;2023-07-13T01:45:25;100833.03;;;29.21;59.39
56040;BME280;43937;41.366;2.072;2023-07-13T01:47:51;100833.53;;;29.34;59.34
56040;BME280;43937;41.366;2.072;2023-07-13T01:50:16;100832.44;;;29.30;58.99
56040;BME280;43937;41.366;2.072;2023-07-13T01:52:42;100799.50;;;29.01;58.68
56040;BME280;43937;41.366;2.072;2023-07-13T01:55:07;100824.03;;;29.30;58.20
56040;BME280;43937;41.366;2.072;2023-07-13T01:57:33;100831.13;;;29.17;58.51
56040;BME280;43937;41.366;2.072;2023-07-13T01:59:58;100802.06;;;29.03;58.73
56040;BME280;43937;41.366;2.072;2023-07-13T02:02:24;100825.44;;;29.27;58.60
56040;BME280;43937;41.366;2.072;2023-07-13T02:04:49;100828.22;;;29.32;58.21
56040;BME280;43937;41.366;2.072;2023-07-13T02:07:15;100825.44;;;29.27;58.13
56040;BME280;43937;41.366;2.072;2023-07-13T02:09:40;100828.50;;;29.31;57.84
56040;BME280;43937;41.366;2.072;2023-07-13T02:12:07;100818.78;;;29.18;58.06
56040;BME280;43937;41.366;2.072;2023-07-13T02:14:33;100833.59;;;29.24;57.49
56040;BME280;43937;41.366;2.072;2023-07-13T02:16:58;100834.47;;;29.19;57.47
56040;BME280;43937;41.366;2.072;2023-07-13T02:20:25;100805.16;;;28.91;58.50
56040;BME280;43937;41.366;2.072;2023-07-13T02:22:51;100830.34;;;29.06;58.38
56040;BME280;43937;41.366;2.072;2023-07-13T02:25:16;100810.16;;;28.99;58.49
56040;BME280;43937;41.366;2.072;2023-07-13T02:27:42;100834.47;;;29.14;58.95
56040;BME280;43937;41.366;2.072;2023-07-13T02:30:08;100830.84;;;29.13;59.18
56040;BME280;43937;41.366;2.072;2023-07-13T02:32:34;100820.81;;;28.97;58.51
56040;BME280;43937;41.366;2.072;2023-07-13T02:35:01;100844.38;;;28.91;58.99
56040;BME280;43937;41.366;2.072;2023-07-13T02:37:26;100844.97;;;28.77;59.05
56040;BME280;43937;41.366;2.072;2023-07-13T02:39:52;100847.00;;;28.72;59.68
56040;BME280;43937;41.366;2.072;2023-07-13T02:42:17;100833.31;;;28.60;59.01
56040;BME280;43937;41.366;2.072;2023-07-13T02:44:42;100824.38;;;28.48;58.86
56040;BME280;43937;41.366;2.072;2023-07-13T02:47:08;100840.03;;;28.49;59.79
56040;BME280;43937;41.366;2.072;2023-07-13T02:49:33;100842.00;;;28.48;59.39
56040;BME280;43937;41.366;2.072;2023-07-13T02:51:59;100836.69;;;28.52;59.48
56040;BME280;43937;41.366;2.072;2023-07-13T02:54:25;100840.63;;;28.41;59.57
56040;BME280;43937;41.366;2.072;2023-07-13T02:56:50;100836.69;;;28.31;59.69
56040;BME280;43937;41.366;2.072;2023-07-13T02:59:16;100827.22;;;28.17;59.91
56040;BME280;43937;41.366;2.072;2023-07-13T03:01:41;100845.13;;;28.06;60.66
56040;BME280;43937;41.366;2.072;2023-07-13T03:04:07;100850.16;;;27.99;60.65
56040;BME280;43937;41.366;2.072;2023-07-13T03:06:33;100827.78;;;27.89;60.54
56040;BME280;43937;41.366;2.072;2023-07-13T03:08:59;100855.75;;;28.09;60.34
56040;BME280;43937;41.366;2.072;2023-07-13T03:11:25;100823.88;;;28.00;60.25
56040;BME280;43937;41.366;2.072;2023-07-13T03:13:51;100855.75;;;27.99;61.50
56040;BME280;43937;41.366;2.072;2023-07-13T03:16:17;100837.56;;;27.86;61.29
56040;BME280;43937;41.366;2.072;2023-07-13T03:18:43;100854.34;;;28.06;61.39
56040;BME280;43937;41.366;2.072;2023-07-13T03:21:09;100861.63;;;28.13;61.21
56040;BME280;43937;41.366;2.072;2023-07-13T03:23:34;100855.19;;;28.12;60.93
56040;BME280;43937;41.366;2.072;2023-07-13T03:26:07;100858.81;;;28.28;60.55
56040;BME280;43937;41.366;2.072;2023-07-13T03:28:34;100856.31;;;28.26;60.24
56040;BME280;43937;41.366;2.072;2023-07-13T03:31:03;100838.69;;;28.21;59.97
56040;BME280;43937;41.366;2.072;2023-07-13T03:33:30;100837.84;;;28.15;60.47
56040;BME280;43937;41.366;2.072;2023-07-13T03:35:56;100831.94;;;28.22;59.79
56040;BME280;43937;41.366;2.072;2023-07-13T03:38:21;100836.16;;;28.19;59.93
56040;BME280;43937;41.366;2.072;2023-07-13T03:40:47;100849.56;;;28.38;60.19
56040;BME280;43937;41.366;2.072;2023-07-13T03:43:12;100854.63;;;28.36;60.00
56040;BME280;43937;41.366;2.072;2023-07-13T03:45:38;100841.19;;;28.27;60.01
56040;BME280;43937;41.366;2.072;2023-07-13T03:48:04;100851.53;;;28.27;60.58
56040;BME280;43937;41.366;2.072;2023-07-13T03:50:30;100838.41;;;28.12;60.66
56040;BME280;43937;41.366;2.072;2023-07-13T03:52:57;100856.00;;;28.23;60.52
56040;BME280;43937;41.366;2.072;2023-07-13T03:55:23;100854.63;;;28.10;60.61
56040;BME280;43937;41.366;2.072;2023-07-13T03:57:54;100854.94;;;28.08;60.76
56040;BME280;43937;41.366;2.072;2023-07-13T04:00:22;100875.06;;;28.21;61.15
56040;BME280;43937;41.366;2.072;2023-07-13T04:02:48;100876.75;;;28.06;62.56
56040;BME280;43937;41.366;2.072;2023-07-13T04:05:15;100872.25;;;28.16;62.79
56040;BME280;43937;41.366;2.072;2023-07-13T04:07:40;100873.66;;;28.13;62.68
56040;BME280;43937;41.366;2.072;2023-07-13T04:10:06;100877.84;;;28.11;62.62
56040;BME280;43937;41.366;2.072;2023-07-13T04:12:31;100885.97;;;28.07;62.71
56040;BME280;43937;41.366;2.072;2023-07-13T04:14:57;100888.22;;;28.05;63.42
56040;BME280;43937;41.366;2.072;2023-07-13T04:17:22;100866.97;;;28.09;63.03
56040;BME280;43937;41.366;2.072;2023-07-13T04:19:48;100860.78;;;28.02;63.36
56040;BME280;43937;41.366;2.072;2023-07-13T04:22:14;100848.75;;;27.86;63.98
56040;BME280;43937;41.366;2.072;2023-07-13T04:24:40;100888.78;;;28.17;63.82
56040;BME280;43937;41.366;2.072;2023-07-13T04:27:06;100890.47;;;28.18;63.75
56040;BME280;43937;41.366;2.072;2023-07-13T04:29:32;100871.72;;;28.08;63.86
56040;BME280;43937;41.366;2.072;2023-07-13T04:31:57;100872.53;;;27.99;64.23
56040;BME280;43937;41.366;2.072;2023-07-13T04:34:23;100890.16;;;28.04;63.98
56040;BME280;43937;41.366;2.072;2023-07-13T04:36:49;100890.19;;;28.15;63.89
56040;BME280;43937;41.366;2.072;2023-07-13T04:39:15;100894.38;;;28.12;63.70
56040;BME280;43937;41.366;2.072;2023-07-13T04:41:40;100865.84;;;27.95;63.05
56040;BME280;43937;41.366;2.072;2023-07-13T04:44:06;100889.63;;;28.02;63.32
56040;BME280;43937;41.366;2.072;2023-07-13T04:46:31;100894.94;;;28.19;62.88
56040;BME280;43937;41.366;2.072;2023-07-13T04:48:57;100901.09;;;28.26;62.70
56040;BME280;43937;41.366;2.072;2023-07-13T04:51:23;100903.91;;;28.42;61.29
56040;BME280;43937;41.366;2.072;2023-07-13T04:53:49;100893.50;;;28.32;61.39
56040;BME280;43937;41.366;2.072;2023-07-13T04:56:14;100901.91;;;28.37;61.33
56040;BME280;43937;41.366;2.072;2023-07-13T04:58:40;100881.50;;;28.42;60.93
56040;BME280;43937;41.366;2.072;2023-07-13T05:01:06;100877.31;;;28.44;61.18
56040;BME280;43937;41.366;2.072;2023-07-13T05:03:33;100911.69;;;28.81;60.47
56040;BME280;43937;41.366;2.072;2023-07-13T05:06:02;100923.16;;;28.84;60.14
56040;BME280;43937;41.366;2.072;2023-07-13T05:08:29;100917.78;;;29.03;59.32
56040;BME280;43937;41.366;2.072;2023-07-13T05:10:54;100916.63;;;29.14;58.65
56040;BME280;43937;41.366;2.072;2023-07-13T05:13:21;100907.09;;;29.15;58.51
56040;BME280;43937;41.366;2.072;2023-07-13T05:15:55;100923.84;;;29.31;58.13
56040;BME280;43937;41.366;2.072;2023-07-13T05:18:21;100886.97;;;29.03;57.56
56040;BME280;43937;41.366;2.072;2023-07-13T05:20:46;100914.00;;;29.33;58.17
56040;BME280;43937;41.366;2.072;2023-07-13T05:23:12;100920.34;;;29.54;56.74
56040;BME280;43937;41.366;2.072;2023-07-13T05:25:37;100923.59;;;29.77;56.81
56040;BME280;43937;41.366;2.072;2023-07-13T05:28:02;100911.81;;;30.14;55.42
56040;BME280;43937;41.366;2.072;2023-07-13T05:30:28;100920.84;;;32.03;51.17
56040;BME280;43937;41.366;2.072;2023-07-13T05:32:53;100931.41;;;32.91;48.28
56040;BME280;43937;41.366;2.072;2023-07-13T05:35:19;100931.38;;;33.46;46.73
56040;BME280;43937;41.366;2.072;2023-07-13T05:37:44;100936.75;;;34.20;44.95
56040;BME280;43937;41.366;2.072;2023-07-13T05:40:10;100939.09;;;34.72;44.01
56040;BME280;43937;41.366;2.072;2023-07-13T05:42:35;100947.28;;;35.79;41.90
56040;BME280;43937;41.366;2.072;2023-07-13T05:45:02;100957.25;;;37.19;39.18
56040;BME280;43937;41.366;2.072;2023-07-13T05:47:27;100922.50;;;37.22;37.87
56040;BME280;43937;41.366;2.072;2023-07-13T05:49:52;100949.75;;;36.67;39.49
56040;BME280;43937;41.366;2.072;2023-07-13T05:52:18;100951.91;;;34.24;44.56
56040;BME280;43937;41.366;2.072;2023-07-13T05:54:43;100959.28;;;34.11;44.95
56040;BME280;43937;41.366;2.072;2023-07-13T05:57:09;100960.91;;;36.64;39.80
56040;BME280;43937;41.366;2.072;2023-07-13T05:59:35;100971.19;;;38.80;35.96
56040;BME280;43937;41.366;2.072;2023-07-13T06:02:00;100956.41;;;39.11;35.17
56040;BME280;43937;41.366;2.072;2023-07-13T06:04:26;100968.16;;;36.18;40.43
56040;BME280;43937;41.366;2.072;2023-07-13T06:06:51;100968.53;;;35.02;42.78
56040;BME280;43937;41.366;2.072;2023-07-13T06:09:18;100964.22;;;34.06;45.25
56040;BME280;43937;41.366;2.072;2023-07-13T06:11:43;100968.53;;;33.53;47.09
56040;BME280;43937;41.366;2.072;2023-07-13T06:14:08;100970.84;;;34.46;44.67
56040;BME280;43937;41.366;2.072;2023-07-13T06:16:34;100983.47;;;36.52;40.63
56040;BME280;43937;41.366;2.072;2023-07-13T06:18:59;100972.06;;;38.47;37.23
56040;BME280;43937;41.366;2.072;2023-07-13T06:21:25;100988.72;;;39.76;34.69
56040;BME280;43937;41.366;2.072;2023-07-13T06:23:51;100992.53;;;40.49;33.51
56040;BME280;43937;41.366;2.072;2023-07-13T06:26:18;100991.09;;;41.47;31.73
56040;BME280;43937;41.366;2.072;2023-07-13T06:28:44;101003.88;;;42.43;30.42
56040;BME280;43937;41.366;2.072;2023-07-13T06:31:11;101009.47;;;43.47;29.32
56040;BME280;43937;41.366;2.072;2023-07-13T06:33:37;101009.78;;;43.15;29.63
56040;BME280;43937;41.366;2.072;2023-07-13T06:36:04;100997.06;;;39.97;33.77
56040;BME280;43937;41.366;2.072;2023-07-13T06:38:30;101001.28;;;37.85;37.26
56040;BME280;43937;41.366;2.072;2023-07-13T06:40:56;100994.31;;;36.23;40.17
56040;BME280;43937;41.366;2.072;2023-07-13T06:43:21;100999.44;;;35.78;41.96
56040;BME280;43937;41.366;2.072;2023-07-13T06:45:48;100998.25;;;35.22;42.80
56040;BME280;43937;41.366;2.072;2023-07-13T06:48:19;101004.31;;;36.47;40.86
56040;BME280;43937;41.366;2.072;2023-07-13T06:50:45;101011.34;;;37.14;39.07
56040;BME280;43937;41.366;2.072;2023-07-13T06:53:13;101010.41;;;37.99;37.59
56040;BME280;43937;41.366;2.072;2023-07-13T06:55:39;101018.75;;;39.49;34.78
56040;BME280;43937;41.366;2.072;2023-07-13T06:58:05;101019.44;;;38.22;36.78
56040;BME280;43937;41.366;2.072;2023-07-13T07:00:31;101024.38;;;38.67;36.02
56040;BME280;43937;41.366;2.072;2023-07-13T07:02:56;100983.50;;;37.96;37.07
56040;BME280;43937;41.366;2.072;2023-07-13T07:05:23;101005.81;;;37.18;38.29
56040;BME280;43937;41.366;2.072;2023-07-13T07:07:53;101032.16;;;39.86;34.50
56040;BME280;43937;41.366;2.072;2023-07-13T07:10:19;101027.44;;;41.65;31.34
56040;BME280;43937;41.366;2.072;2023-07-13T07:12:45;101033.09;;;43.63;28.53
56040;BME280;43937;41.366;2.072;2023-07-13T07:15:11;101040.81;;;43.86;27.90
56040;BME280;43937;41.366;2.072;2023-07-13T07:17:37;101053.03;;;44.36;27.29
56040;BME280;43937;41.366;2.072;2023-07-13T07:20:03;101053.78;;;45.45;25.62
56040;BME280;43937;41.366;2.072;2023-07-13T07:22:29;101059.38;;;45.75;25.72
56040;BME280;43937;41.366;2.072;2023-07-13T07:24:56;101060.69;;;45.85;25.49
56040;BME280;43937;41.366;2.072;2023-07-13T07:27:22;101038.56;;;46.76;24.04
56040;BME280;43937;41.366;2.072;2023-07-13T07:29:47;101046.41;;;47.98;22.63
56040;BME280;43937;41.366;2.072;2023-07-13T07:32:13;101064.44;;;48.34;21.91
56040;BME280;43937;41.366;2.072;2023-07-13T07:34:39;101076.25;;;49.35;21.01
56040;BME280;43937;41.366;2.072;2023-07-13T07:37:04;101052.63;;;45.09;25.93
56040;BME280;43937;41.366;2.072;2023-07-13T07:39:30;101037.22;;;42.74;28.75
56040;BME280;43937;41.366;2.072;2023-07-13T07:41:56;101059.06;;;44.57;26.55
56040;BME280;43937;41.366;2.072;2023-07-13T07:44:22;101066.38;;;46.36;24.48
56040;BME280;43937;41.366;2.072;2023-07-13T07:46:47;101060.06;;;47.40;22.96
56040;BME280;43937;41.366;2.072;2023-07-13T07:49:13;101053.25;;;46.50;24.37
56040;BME280;43937;41.366;2.072;2023-07-13T07:51:39;101040.97;;;43.20;27.87
56040;BME280;43937;41.366;2.072;2023-07-13T07:54:05;101046.47;;;42.48;29.73
56040;BME280;43937;41.366;2.072;2023-07-13T07:56:31;101062.72;;;45.84;25.13
56040;BME280;43937;41.366;2.072;2023-07-13T07:58:57;101051.72;;;46.77;24.04
56040;BME280;43937;41.366;2.072;2023-07-13T08:01:23;101066.97;;;46.89;23.62
56040;BME280;43937;41.366;2.072;2023-07-13T08:03:48;101065.00;;;47.21;23.68
56040;BME280;43937;41.366;2.072;2023-07-13T08:06:14;101071.00;;;48.49;22.01
56040;BME280;43937;41.366;2.072;2023-07-13T08:08:40;101069.69;;;46.42;24.11
56040;BME280;43937;41.366;2.072;2023-07-13T08:11:07;101066.31;;;46.29;24.19
56040;BME280;43937;41.366;2.072;2023-07-13T08:13:34;101045.66;;;42.67;29.08
56040;BME280;43937;41.366;2.072;2023-07-13T08:16:00;101047.28;;;41.27;31.49
56040;BME280;43937;41.366;2.072;2023-07-13T08:18:26;101051.72;;;40.52;32.87
56040;BME280;43937;41.366;2.072;2023-07-13T08:20:53;101061.84;;;43.21;28.83
56040;BME280;43937;41.366;2.072;2023-07-13T08:23:21;101073.66;;;46.20;25.57
56040;BME280;43937;41.366;2.072;2023-07-13T08:25:53;101074.06;;;47.41;23.87
56040;BME280;43937;41.366;2.072;2023-07-13T08:28:20;101078.19;;;47.33;24.12
56040;BME280;43937;41.366;2.072;2023-07-13T08:30:46;101060.34;;;43.77;28.44
56040;BME280;43937;41.366;2.072;2023-07-13T08:33:21;101036.88;;;41.34;32.17
56040;BME280;43937;41.366;2.072;2023-07-13T08:35:47;101032.78;;;40.32;34.06
56040;BME280;43937;41.366;2.072;2023-07-13T08:38:13;101057.56;;;40.43;33.81
56040;BME280;43937;41.366;2.072;2023-07-13T08:40:39;101045.28;;;39.16;35.80
56040;BME280;43937;41.366;2.072;2023-07-13T08:43:18;101047.00;;;38.21;37.67
56040;BME280;43937;41.366;2.072;2023-07-13T08:45:48;101055.63;;;42.96;30.78
56040;BME280;43937;41.366;2.072;2023-07-13T08:48:26;101057.09;;;45.02;27.70
56040;BME280;43937;41.366;2.072;2023-07-13T08:53:23;101045.94;;;44.00;28.29
56040;BME280;43937;41.366;2.072;2023-07-13T08:55:57;101050.81;;;45.27;26.38
56040;BME280;43937;41.366;2.072;2023-07-13T08:58:25;101071.66;;;45.68;26.46
56040;BME280;43937;41.366;2.072;2023-07-13T09:01:17;101066.88;;;44.94;27.59
56040;BME280;43937;41.366;2.072;2023-07-13T09:03:56;101066.09;;;44.97;27.80
56040;BME280;43937;41.366;2.072;2023-07-13T09:06:31;101064.69;;;44.84;27.59
56040;BME280;43937;41.366;2.072;2023-07-13T09:09:08;101040.34;;;44.37;27.93
56040;BME280;43937;41.366;2.072;2023-07-13T09:11:49;101057.38;;;43.96;28.45
56040;BME280;43937;41.366;2.072;2023-07-13T09:14:43;101049.88;;;43.88;28.26
56040;BME280;43937;41.366;2.072;2023-07-13T09:17:21;101044.84;;;43.32;28.42
56040;BME280;43937;41.366;2.072;2023-07-13T09:20:14;101041.75;;;42.75;29.26
56040;BME280;43937;41.366;2.072;2023-07-13T09:22:42;101050.00;;;42.61;29.31
56040;BME280;43937;41.366;2.072;2023-07-13T09:25:30;101043.31;;;41.31;31.63
56040;BME280;43937;41.366;2.072;2023-07-13T09:28:20;101045.00;;;39.79;33.96
56040;BME280;43937;41.366;2.072;2023-07-13T09:31:10;101051.41;;;39.06;36.02
56040;BME280;43937;41.366;2.072;2023-07-13T09:33:38;101030.00;;;38.55;36.04
56040;BME280;43937;41.366;2.072;2023-07-13T09:36:24;101046.97;;;39.30;34.60
56040;BME280;43937;41.366;2.072;2023-07-13T09:41:57;101049.13;;;40.91;32.61
56040;BME280;43937;41.366;2.072;2023-07-13T09:44:34;101052.97;;;41.27;31.89
56040;BME280;43937;41.366;2.072;2023-07-13T09:47:00;101059.75;;;41.50;30.91
56040;BME280;43937;41.366;2.072;2023-07-13T09:49:37;101052.16;;;41.26;31.21
56040;BME280;43937;41.366;2.072;2023-07-13T09:52:05;101039.47;;;40.80;31.28
56040;BME280;43937;41.366;2.072;2023-07-13T09:54:34;101058.75;;;40.98;31.27
56040;BME280;43937;41.366;2.072;2023-07-13T09:57:02;101057.59;;;41.31;30.58
56040;BME280;43937;41.366;2.072;2023-07-13T09:59:34;101035.66;;;40.07;32.17
56040;BME280;43937;41.366;2.072;2023-07-13T10:01:59;101064.06;;;39.67;32.95
56040;BME280;43937;41.366;2.072;2023-07-13T10:04:31;101066.38;;;39.15;33.59
56040;BME280;43937;41.366;2.072;2023-07-13T10:07:08;101044.72;;;38.36;34.06
56040;BME280;43937;41.366;2.072;2023-07-13T10:09:34;101071.13;;;38.78;33.20
56040;BME280;43937;41.366;2.072;2023-07-13T10:12:00;101068.28;;;38.15;33.35
56040;BME280;43937;41.366;2.072;2023-07-13T10:14:25;101066.91;;;39.30;32.10
56040;BME280;43937;41.366;2.072;2023-07-13T10:17:01;101076.66;;;39.66;32.13
56040;BME280;43937;41.366;2.072;2023-07-13T10:19:31;101066.94;;;39.79;31.36
56040;BME280;43937;41.366;2.072;2023-07-13T10:24:46;101065.44;;;39.11;32.02
56040;BME280;43937;41.366;2.072;2023-07-13T10:27:17;101063.50;;;39.03;32.79
56040;BME280;43937;41.366;2.072;2023-07-13T10:30:11;101064.22;;;39.12;32.41
56040;BME280;43937;41.366;2.072;2023-07-13T10:32:38;101063.03;;;39.59;31.51
56040;BME280;43937;41.366;2.072;2023-07-13T10:35:03;101076.31;;;39.67;31.28
56040;BME280;43937;41.366;2.072;2023-07-13T10:37:57;101077.81;;;40.26;29.71
56040;BME280;43937;41.366;2.072;2023-07-13T10:40:27;101084.03;;;40.03;29.03
56040;BME280;43937;41.366;2.072;2023-07-13T10:42:57;101081.47;;;40.79;28.46
56040;BME280;43937;41.366;2.072;2023-07-13T10:45:24;101092.56;;;39.91;28.30
56040;BME280;43937;41.366;2.072;2023-07-13T10:47:52;101084.28;;;39.61;28.93
56040;BME280;43937;41.366;2.072;2023-07-13T10:50:26;101081.88;;;39.63;28.80
56040;BME280;43937;41.366;2.072;2023-07-13T10:53:02;101084.88;;;39.92;28.84
56040;BME280;43937;41.366;2.072;2023-07-13T10:55:54;101084.97;;;40.20;27.84
56040;BME280;43937;41.366;2.072;2023-07-13T11:01:17;101077.50;;;39.91;25.58
56040;BME280;43937;41.366;2.072;2023-07-13T11:06:42;101080.84;;;39.80;26.36
56040;BME280;43937;41.366;2.072;2023-07-13T11:11:47;101085.13;;;39.74;26.48
56040;BME280;43937;41.366;2.072;2023-07-13T11:14:29;101089.47;;;40.21;25.77
56040;BME280;43937;41.366;2.072;2023-07-13T11:16:55;101076.16;;;39.39;26.30
56040;BME280;43937;41.366;2.072;2023-07-13T11:25:00;101080.22;;;39.38;25.79
56040;BME280;43937;41.366;2.072;2023-07-13T11:27:45;101068.22;;;38.66;25.41
56040;BME280;43937;41.366;2.072;2023-07-13T11:32:39;101065.97;;;38.59;26.39
56040;BME280;43937;41.366;2.072;2023-07-13T11:35:13;101067.22;;;38.49;26.10
56040;BME280;43937;41.366;2.072;2023-07-13T11:37:40;101050.41;;;38.36;26.27
56040;BME280;43937;41.366;2.072;2023-07-13T11:40:13;101065.09;;;39.13;25.22
56040;BME280;43937;41.366;2.072;2023-07-13T11:42:39;101072.97;;;39.41;24.42
56040;BME280;43937;41.366;2.072;2023-07-13T11:45:19;101059.56;;;39.29;24.99
56040;BME280;43937;41.366;2.072;2023-07-13T11:47:48;101050.72;;;39.09;24.73
56040;BME280;43937;41.366;2.072;2023-07-13T11:50:23;101066.97;;;39.21;25.09
56040;BME280;43937;41.366;2.072;2023-07-13T11:52:50;101057.31;;;38.89;25.89
56040;BME280;43937;41.366;2.072;2023-07-13T11:55:20;101060.47;;;39.21;25.66
56040;BME280;43937;41.366;2.072;2023-07-13T11:57:53;101058.81;;;38.53;26.73
56040;BME280;43937;41.366;2.072;2023-07-13T12:00:25;101055.44;;;39.05;26.33
56040;BME280;43937;41.366;2.072;2023-07-13T12:02:53;101049.41;;;38.94;26.41
56040;BME280;43937;41.366;2.072;2023-07-13T12:05:20;101052.38;;;38.98;26.33
56040;BME280;43937;41.366;2.072;2023-07-13T12:07:46;101056.47;;;38.55;26.72
56040;BME280;43937;41.366;2.072;2023-07-13T12:10:25;101058.53;;;38.46;26.92
56040;BME280;43937;41.366;2.072;2023-07-13T12:13:00;101036.63;;;38.04;26.81
56040;BME280;43937;41.366;2.072;2023-07-13T12:15:37;101049.31;;;38.07;27.27
56040;BME280;43937;41.366;2.072;2023-07-13T12:18:28;101058.69;;;38.49;27.23
56040;BME280;43937;41.366;2.072;2023-07-13T12:20:56;101046.38;;;38.58;26.65
56040;BME280;43937;41.366;2.072;2023-07-13T12:23:29;101047.41;;;38.41;27.46
56040;BME280;43937;41.366;2.072;2023-07-13T12:25:56;101018.81;;;38.16;27.28
56040;BME280;43937;41.366;2.072;2023-07-13T12:30:58;101038.63;;;38.46;26.18
56040;BME280;43937;41.366;2.072;2023-07-13T12:33:26;101036.91;;;37.82;27.82
56040;BME280;43937;41.366;2.072;2023-07-13T12:35:53;101027.25;;;37.45;28.11
56040;BME280;43937;41.366;2.072;2023-07-13T12:38:18;101032.75;;;37.79;27.98
56040;BME280;43937;41.366;2.072;2023-07-13T12:40:49;101029.81;;;37.97;27.92
56040;BME280;43937;41.366;2.072;2023-07-13T12:43:16;101005.06;;;37.47;28.55
56040;BME280;43937;41.366;2.072;2023-07-13T12:46:16;101012.34;;;37.56;27.37
56040;BME280;43937;41.366;2.072;2023-07-13T12:48:43;101020.41;;;37.75;27.58
56040;BME280;43937;41.366;2.072;2023-07-13T12:51:12;101017.06;;;38.03;26.85
56040;BME280;43937;41.366;2.072;2023-07-13T12:53:47;101021.72;;;37.48;27.74
56040;BME280;43937;41.366;2.072;2023-07-13T12:56:27;100996.63;;;37.59;27.79
56040;BME280;43937;41.366;2.072;2023-07-13T12:58:58;101009.38;;;37.53;28.49
56040;BME280;43937;41.366;2.072;2023-07-13T13:01:28;101011.78;;;37.63;28.39
56040;BME280;43937;41.366;2.072;2023-07-13T13:03:55;100980.84;;;37.41;28.46
56040;BME280;43937;41.366;2.072;2023-07-13T13:06:23;100991.28;;;37.57;28.69
56040;BME280;43937;41.366;2.072;2023-07-13T13:08:54;100994.34;;;37.44;28.59
56040;BME280;43937;41.366;2.072;2023-07-13T13:11:21;100995.16;;;37.53;28.63
56040;BME280;43937;41.366;2.072;2023-07-13T13:13:53;100969.94;;;37.43;28.33
56040;BME280;43937;41.366;2.072;2023-07-13T13:18:47;100971.91;;;36.74;28.41
56040;BME280;43937;41.366;2.072;2023-07-13T13:21:13;101000.63;;;37.28;27.35
56040;BME280;43937;41.366;2.072;2023-07-13T13:23:39;101010.19;;;37.15;27.50
56040;BME280;43937;41.366;2.072;2023-07-13T13:26:10;100979.59;;;37.21;27.82
56040;BME280;43937;41.366;2.072;2023-07-13T13:28:36;100986.22;;;37.04;27.83
56040;BME280;43937;41.366;2.072;2023-07-13T13:31:02;100987.19;;;37.46;27.20